Time;durP1;ratioP1;P1;durP2;ratioP2;P2;SDS_P1;SDS_P2;PMS_P1;PMS_P2;Temp;Humidity;BMP_temperature;BMP_pressure;BME280_temperature;BME280_humidity;BME280_pressure;Samples;Min_cycle;Max_cycle;Signal;HPM_P1;HPM_P2
2022/08/16 00:00:00;;;;;;;23.25;14.45;;;;;;;;;;5106776;28;20406;-64
2022/08/16 00:02:27;;;;;;;18.65;13.52;;;;;;;;;;5087237;28;20120;-64
2022/08/16 00:04:55;;;;;;;18.92;13.75;;;;;;;;;;5101344;28;20043;-64
2022/08/16 00:07:22;;;;;;;23.27;14.13;;;;;;;;;;5097955;28;20044;-64
2022/08/16 00:09:50;;;;;;;19.52;13.95;;;;;;;;;;5099161;28;20124;-64
2022/08/16 00:12:18;;;;;;;19.27;14.27;;;;;;;;;;5105887;28;20497;-64
2022/08/16 00:14:45;;;;;;;16.13;14.13;;;;;;;;;;5103264;28;20039;-64
2022/08/16 00:17:12;;;;;;;20.13;14.13;;;;;;;;;;5104165;28;20044;-64
2022/08/16 00:19:39;;;;;;;18.27;13.50;;;;;;;;;;5104978;28;20104;-64
2022/08/16 00:22:07;;;;;;;16.23;12.93;;;;;;;;;;5100127;28;20059;-64
2022/08/16 00:24:34;;;;;;;20.10;14.18;;;;;;;;;;5102409;28;20048;-64
2022/08/16 00:27:03;;;;;;;18.27;13.98;;;;;;;;;;5104203;28;20051;-64
2022/08/16 00:29:30;;;;;;;17.10;14.55;;;;;;;;;;5104228;28;20047;-64
2022/08/16 00:31:58;;;;;;;18.80;14.05;;;;;;;;;;5098884;28;20425;-64
2022/08/16 00:34:25;;;;;;;15.93;13.35;;;;;;;;;;5099733;28;20050;-64
2022/08/16 00:36:53;;;;;;;19.63;13.85;;;;;;;;;;5101216;28;20105;-64
2022/08/16 00:39:20;;;;;;;21.80;14.43;;;;;;;;;;5099403;28;20106;-64
2022/08/16 00:41:48;;;;;;;20.35;12.70;;;;;;;;;;5105236;28;20039;-64
2022/08/16 00:44:19;;;;;;;17.45;14.38;;;;;;;;;;5102796;28;20074;-64
2022/08/16 00:46:48;;;;;;;20.08;12.90;;;;;;;;;;5102443;28;20051;-64
2022/08/16 00:49:16;;;;;;;18.42;13.77;;;;;;;;;;5094848;28;20051;-64
2022/08/16 00:51:43;;;;;;;16.92;13.50;;;;;;;;;;5100535;28;20399;-64
2022/08/16 00:54:11;;;;;;;16.00;13.13;;;;;;;;;;5099649;28;20652;-64
2022/08/16 00:56:39;;;;;;;19.70;13.40;;;;;;;;;;5104560;28;20498;-64
2022/08/16 00:59:07;;;;;;;14.18;12.50;;;;;;;;;;5102245;28;20044;-64
2022/08/16 01:01:35;;;;;;;19.13;13.32;;;;;;;;;;5098825;28;20055;-64
2022/08/16 01:04:05;;;;;;;22.70;13.55;;;;;;;;;;5101888;28;20730;-64
2022/08/16 01:06:33;;;;;;;16.63;13.18;;;;;;;;;;5100068;28;20050;-64
2022/08/16 01:09:03;;;;;;;18.17;13.80;;;;;;;;;;5103384;28;20039;-64
2022/08/16 01:11:30;;;;;;;17.90;13.27;;;;;;;;;;5105799;27;20056;-64
2022/08/16 01:14:01;;;;;;;18.42;12.82;;;;;;;;;;5104141;28;20064;-64
2022/08/16 01:16:29;;;;;;;20.80;13.48;;;;;;;;;;5103645;28;20130;-64
2022/08/16 01:19:00;;;;;;;16.95;13.05;;;;;;;;;;5086433;28;20135;-64
2022/08/16 01:21:32;;;;;;;23.27;14.52;;;;;;;;;;5099015;28;20899;-64
2022/08/16 01:24:08;;;;;;;21.48;14.95;;;;;;;;;;5098063;28;20062;-64
2022/08/16 01:26:36;;;;;;;19.70;13.57;;;;;;;;;;5095340;28;20625;-64
2022/08/16 01:29:05;;;;;;;23.52;14.93;;;;;;;;;;5104382;28;20062;-64
2022/08/16 01:31:32;;;;;;;21.05;14.88;;;;;;;;;;5101174;28;20055;-64
2022/08/16 01:33:59;;;;;;;19.17;13.80;;;;;;;;;;5102176;28;20048;-64
2022/08/16 01:36:28;;;;;;;18.25;13.48;;;;;;;;;;5105581;28;20101;-64
2022/08/16 01:38:55;;;;;;;20.42;14.88;;;;;;;;;;5086773;28;20052;-64
2022/08/16 01:41:25;;;;;;;17.00;14.65;;;;;;;;;;5104934;28;20058;-64
2022/08/16 01:43:53;;;;;;;15.88;13.85;;;;;;;;;;5101707;28;20055;-64
2022/08/16 01:46:22;;;;;;;18.10;14.23;;;;;;;;;;5102499;28;20608;-64
2022/08/16 01:48:50;;;;;;;19.38;15.02;;;;;;;;;;5106882;28;20051;-64
2022/08/16 01:51:19;;;;;;;21.75;16.50;;;;;;;;;;5102792;28;20487;-64
2022/08/16 01:53:46;;;;;;;22.30;15.80;;;;;;;;;;5108484;28;20402;-64
2022/08/16 01:56:14;;;;;;;19.42;16.27;;;;;;;;;;5108652;28;20552;-64
2022/08/16 01:58:42;;;;;;;23.65;17.58;;;;;;;;;;5108017;28;20039;-64
2022/08/16 02:01:09;;;;;;;19.35;16.77;;;;;;;;;;5104750;28;20056;-64
2022/08/16 02:03:37;;;;;;;19.60;16.83;;;;;;;;;;5104023;28;20043;-64
2022/08/16 02:06:04;;;;;;;22.73;16.58;;;;;;;;;;5105779;28;20052;-64
2022/08/16 02:08:31;;;;;;;24.17;18.10;;;;;;;;;;5106703;28;20052;-64
2022/08/16 02:10:59;;;;;;;23.17;17.88;;;;;;;;;;5111929;27;20054;-64
2022/08/16 02:13:26;;;;;;;23.13;17.40;;;;;;;;;;5106872;28;20055;-64
2022/08/16 02:15:55;;;;;;;24.52;18.73;;;;;;;;;;5107364;28;20043;-64
2022/08/16 02:18:22;;;;;;;20.67;18.02;;;;;;;;;;5108406;28;20043;-64
2022/08/16 02:20:50;;;;;;;22.20;18.92;;;;;;;;;;5107918;28;20491;-64
2022/08/16 02:23:18;;;;;;;26.20;18.52;;;;;;;;;;5101152;28;20039;-64
2022/08/16 02:25:46;;;;;;;22.20;18.52;;;;;;;;;;5102509;28;20036;-64
2022/08/16 02:28:13;;;;;;;23.15;18.20;;;;;;;;;;5099585;28;20047;-64
2022/08/16 02:30:41;;;;;;;24.48;18.95;;;;;;;;;;5104895;28;20047;-64
2022/08/16 02:33:10;;;;;;;23.38;17.77;;;;;;;;;;5104987;28;20059;-64
2022/08/16 02:35:37;;;;;;;21.65;19.08;;;;;;;;;;5106592;28;20546;-64
2022/08/16 02:38:05;;;;;;;22.70;17.92;;;;;;;;;;5106946;28;20052;-64
2022/08/16 02:40:32;;;;;;;20.08;17.70;;;;;;;;;;5101420;28;20081;-64
2022/08/16 02:43:00;;;;;;;25.55;20.05;;;;;;;;;;5104218;28;20056;-64
2022/08/16 02:45:28;;;;;;;24.30;18.45;;;;;;;;;;5106365;28;20078;-64
2022/08/16 02:47:55;;;;;;;27.63;19.65;;;;;;;;;;5100424;28;20043;-64
2022/08/16 02:50:24;;;;;;;21.38;18.30;;;;;;;;;;5107266;28;20052;-64
2022/08/16 02:52:51;;;;;;;22.13;19.02;;;;;;;;;;5106252;28;20066;-64
2022/08/16 02:55:19;;;;;;;23.27;18.55;;;;;;;;;;5103823;28;20047;-64
2022/08/16 02:57:46;;;;;;;23.73;19.50;;;;;;;;;;5107818;28;20051;-64
2022/08/16 03:00:15;;;;;;;23.33;19.40;;;;;;;;;;5107706;28;20043;-64
2022/08/16 03:02:43;;;;;;;25.55;19.23;;;;;;;;;;5103492;28;20074;-64
2022/08/16 03:05:11;;;;;;;26.73;19.83;;;;;;;;;;5107512;28;20059;-64
2022/08/16 03:07:40;;;;;;;23.45;20.90;;;;;;;;;;5107086;28;20058;-64
2022/08/16 03:10:08;;;;;;;25.98;21.08;;;;;;;;;;5100842;28;20047;-64
2022/08/16 03:12:35;;;;;;;24.17;19.60;;;;;;;;;;5103480;28;20089;-64
2022/08/16 03:15:02;;;;;;;23.48;20.98;;;;;;;;;;5103914;28;20040;-64
2022/08/16 03:17:30;;;;;;;25.55;19.92;;;;;;;;;;5097102;28;20105;-64
2022/08/16 03:19:57;;;;;;;26.35;20.17;;;;;;;;;;5100035;28;20054;-63
2022/08/16 03:22:24;;;;;;;24.75;20.13;;;;;;;;;;5106078;28;20051;-64
2022/08/16 03:24:53;;;;;;;22.98;20.58;;;;;;;;;;5103737;28;20047;-64
2022/08/16 03:27:20;;;;;;;29.98;21.15;;;;;;;;;;5104206;28;20391;-64
2022/08/16 03:29:47;;;;;;;23.42;20.15;;;;;;;;;;5103056;28;20055;-64
2022/08/16 03:32:14;;;;;;;24.55;21.02;;;;;;;;;;5104676;28;20105;-64
2022/08/16 03:34:42;;;;;;;24.77;21.17;;;;;;;;;;5102034;28;20052;-64
2022/08/16 03:37:09;;;;;;;27.92;21.45;;;;;;;;;;5104592;28;20059;-64
2022/08/16 03:39:36;;;;;;;27.13;21.02;;;;;;;;;;5104959;28;20846;-64
2022/08/16 03:42:06;;;;;;;26.83;20.52;;;;;;;;;;5106985;28;20052;-64
2022/08/16 03:44:34;;;;;;;26.13;22.42;;;;;;;;;;5102988;28;20048;-64
2022/08/16 03:47:01;;;;;;;29.35;22.73;;;;;;;;;;5105105;28;20780;-64
2022/08/16 03:49:29;;;;;;;24.48;20.60;;;;;;;;;;5102315;28;20039;-64
2022/08/16 03:51:56;;;;;;;25.77;22.23;;;;;;;;;;5103823;28;20409;-64
2022/08/16 03:54:23;;;;;;;29.23;21.38;;;;;;;;;;5094629;28;20054;-64
2022/08/16 03:56:51;;;;;;;29.20;22.05;;;;;;;;;;5102342;28;20050;-64
2022/08/16 03:59:19;;;;;;;27.15;20.92;;;;;;;;;;5103258;28;20383;-64
2022/08/16 04:01:47;;;;;;;29.88;21.95;;;;;;;;;;5101167;28;20051;-64
2022/08/16 04:04:14;;;;;;;26.20;22.55;;;;;;;;;;5096204;28;20051;-64
2022/08/16 04:06:41;;;;;;;25.80;21.80;;;;;;;;;;5106353;28;20044;-64
2022/08/16 04:09:08;;;;;;;26.85;22.55;;;;;;;;;;5106103;28;20574;-64
2022/08/16 04:11:35;;;;;;;27.67;23.20;;;;;;;;;;5102259;28;20058;-64
2022/08/16 04:14:03;;;;;;;28.33;23.83;;;;;;;;;;5081242;28;20691;-63
2022/08/16 04:16:32;;;;;;;30.73;22.25;;;;;;;;;;5082781;28;20112;-64
2022/08/16 04:18:59;;;;;;;26.85;22.90;;;;;;;;;;5098035;28;20131;-64
2022/08/16 04:21:26;;;;;;;27.40;22.67;;;;;;;;;;5106550;28;20047;-64
2022/08/16 04:23:53;;;;;;;26.67;22.00;;;;;;;;;;5099219;28;20048;-64
2022/08/16 04:26:21;;;;;;;27.45;23.20;;;;;;;;;;5083892;28;20056;-63
2022/08/16 04:28:48;;;;;;;34.42;23.42;;;;;;;;;;5105770;28;20051;-64
2022/08/16 04:31:15;;;;;;;28.15;22.45;;;;;;;;;;5106080;28;20047;-64
2022/08/16 04:33:44;;;;;;;25.40;22.48;;;;;;;;;;5105586;28;20571;-63
2022/08/16 04:36:11;;;;;;;33.55;25.83;;;;;;;;;;5107009;28;20040;-64
2022/08/16 04:38:38;;;;;;;31.25;25.92;;;;;;;;;;5105279;28;20052;-63
2022/08/16 04:41:06;;;;;;;27.92;24.42;;;;;;;;;;5103291;28;20556;-64
2022/08/16 04:43:37;;;;;;;31.88;27.10;;;;;;;;;;5087030;28;20562;-64
2022/08/16 04:46:04;;;;;;;30.42;24.73;;;;;;;;;;5101681;28;20055;-64
2022/08/16 04:48:31;;;;;;;29.73;24.02;;;;;;;;;;5105149;28;20055;-64
2022/08/16 04:51:00;;;;;;;27.40;23.33;;;;;;;;;;5105726;28;20039;-64
2022/08/16 04:53:28;;;;;;;29.30;24.58;;;;;;;;;;5105807;28;20059;-64
2022/08/16 04:55:55;;;;;;;31.83;23.90;;;;;;;;;;5102333;28;20126;-64
2022/08/16 04:58:22;;;;;;;30.52;23.77;;;;;;;;;;5103066;28;20059;-64
2022/08/16 05:00:49;;;;;;;30.75;24.60;;;;;;;;;;5102134;28;20051;-63
2022/08/16 05:03:17;;;;;;;30.85;24.90;;;;;;;;;;5101055;28;20525;-64
2022/08/16 05:05:44;;;;;;;28.15;25.08;;;;;;;;;;5104140;28;20050;-64
2022/08/16 05:08:13;;;;;;;26.50;23.15;;;;;;;;;;5101788;28;20123;-64
2022/08/16 05:10:40;;;;;;;29.08;23.63;;;;;;;;;;5100160;28;20052;-64
2022/08/16 05:13:08;;;;;;;32.22;23.70;;;;;;;;;;5099191;28;20105;-64
2022/08/16 05:15:35;;;;;;;28.83;23.77;;;;;;;;;;5100655;28;20482;-64
2022/08/16 05:18:03;;;;;;;25.38;22.67;;;;;;;;;;5103500;28;20051;-64
2022/08/16 05:20:31;;;;;;;32.30;24.55;;;;;;;;;;5101283;28;20082;-64
2022/08/16 05:22:58;;;;;;;28.50;23.45;;;;;;;;;;5105366;28;20430;-64
2022/08/16 05:25:26;;;;;;;29.35;23.88;;;;;;;;;;5104741;28;20067;-64
2022/08/16 05:27:56;;;;;;;29.33;23.00;;;;;;;;;;5100674;28;20040;-64
2022/08/16 05:30:24;;;;;;;29.20;24.33;;;;;;;;;;5093964;28;20562;-64
2022/08/16 05:32:51;;;;;;;28.25;23.20;;;;;;;;;;5101860;28;20043;-64
2022/08/16 05:35:19;;;;;;;32.17;23.23;;;;;;;;;;5103919;28;20530;-64
2022/08/16 05:37:46;;;;;;;28.83;23.95;;;;;;;;;;5104412;28;20054;-64
2022/08/16 05:40:13;;;;;;;31.38;23.35;;;;;;;;;;5100705;28;20056;-64
2022/08/16 05:42:42;;;;;;;29.30;24.50;;;;;;;;;;5105221;28;20074;-64
2022/08/16 05:45:10;;;;;;;30.23;24.27;;;;;;;;;;5103313;28;20047;-64
2022/08/16 05:47:37;;;;;;;29.70;23.88;;;;;;;;;;5104327;28;20072;-64
2022/08/16 05:50:05;;;;;;;31.05;24.80;;;;;;;;;;5104402;28;20056;-64
2022/08/16 05:52:32;;;;;;;29.90;24.50;;;;;;;;;;5101873;28;20055;-64
2022/08/16 05:54:59;;;;;;;27.48;23.85;;;;;;;;;;5101022;28;20390;-64
2022/08/16 05:57:26;;;;;;;29.30;23.67;;;;;;;;;;5103409;28;20054;-64
2022/08/16 05:59:55;;;;;;;26.95;23.63;;;;;;;;;;5095848;28;20054;-64
2022/08/16 06:02:25;;;;;;;30.80;23.73;;;;;;;;;;5102144;28;20047;-64
2022/08/16 06:04:52;;;;;;;26.48;23.40;;;;;;;;;;5100805;28;20052;-64
2022/08/16 06:07:20;;;;;;;29.05;23.60;;;;;;;;;;5104144;28;20046;-64
2022/08/16 06:09:47;;;;;;;31.58;23.85;;;;;;;;;;5099270;28;20048;-64
2022/08/16 06:12:17;;;;;;;27.65;22.65;;;;;;;;;;5100976;28;20059;-64
2022/08/16 06:14:44;;;;;;;27.77;22.73;;;;;;;;;;5099352;28;20054;-64
2022/08/16 06:17:15;;;;;;;32.33;23.52;;;;;;;;;;5082800;28;20059;-64
2022/08/16 06:19:42;;;;;;;30.23;23.17;;;;;;;;;;5096478;28;20155;-64
2022/08/16 06:22:10;;;;;;;31.33;23.65;;;;;;;;;;5092982;28;20118;-64
2022/08/16 06:24:37;;;;;;;27.90;23.95;;;;;;;;;;5099437;28;20040;-64
2022/08/16 06:27:04;;;;;;;29.13;24.05;;;;;;;;;;5095651;28;20651;-64
2022/08/16 06:29:32;;;;;;;32.38;24.17;;;;;;;;;;5098326;28;20143;-64
2022/08/16 06:31:59;;;;;;;32.17;24.63;;;;;;;;;;5104594;28;20047;-64
2022/08/16 06:34:28;;;;;;;29.55;24.02;;;;;;;;;;5099128;28;20069;-64
2022/08/16 06:36:55;;;;;;;34.58;26.23;;;;;;;;;;5101982;28;20035;-64
2022/08/16 06:39:22;;;;;;;34.60;27.02;;;;;;;;;;5106206;28;20074;-64
2022/08/16 06:41:49;;;;;;;32.55;26.88;;;;;;;;;;5106389;28;20096;-64
2022/08/16 06:44:17;;;;;;;38.38;29.08;;;;;;;;;;5106222;28;20514;-64
2022/08/16 06:46:44;;;;;;;36.03;28.40;;;;;;;;;;5091624;28;20051;-64
2022/08/16 06:49:12;;;;;;;36.95;28.25;;;;;;;;;;5104793;28;20051;-64
2022/08/16 06:51:41;;;;;;;36.53;29.13;;;;;;;;;;5104151;28;20050;-64
2022/08/16 06:54:09;;;;;;;38.78;29.38;;;;;;;;;;5096670;28;20165;-64
2022/08/16 06:56:37;;;;;;;40.83;29.80;;;;;;;;;;5101842;28;20126;-64
2022/08/16 06:59:04;;;;;;;39.97;31.42;;;;;;;;;;5107345;28;20414;-64
2022/08/16 07:01:31;;;;;;;41.67;29.17;;;;;;;;;;5105596;28;20052;-64
2022/08/16 07:03:58;;;;;;;35.85;27.98;;;;;;;;;;5106622;28;20043;-64
2022/08/16 07:06:26;;;;;;;39.13;27.95;;;;;;;;;;5097400;28;21173;-65
2022/08/16 07:08:55;;;;;;;33.97;26.05;;;;;;;;;;5105776;28;20483;-64
2022/08/16 07:11:22;;;;;;;45.92;27.13;;;;;;;;;;5104210;28;20047;-64
2022/08/16 07:13:49;;;;;;;42.47;27.20;;;;;;;;;;5100793;28;20048;-64
2022/08/16 07:16:16;;;;;;;34.38;26.83;;;;;;;;;;5105355;28;20044;-64
2022/08/16 07:18:44;;;;;;;35.38;24.00;;;;;;;;;;5105915;28;20435;-64
2022/08/16 07:21:12;;;;;;;35.60;24.85;;;;;;;;;;5106101;28;20043;-64
2022/08/16 07:23:39;;;;;;;30.88;24.52;;;;;;;;;;5096221;28;20043;-64
2022/08/16 07:26:09;;;;;;;30.42;25.00;;;;;;;;;;5105816;28;20066;-65
2022/08/16 07:28:36;;;;;;;30.63;24.27;;;;;;;;;;5100461;28;20585;-64
2022/08/16 07:31:03;;;;;;;33.83;24.75;;;;;;;;;;5105316;28;20074;-64
2022/08/16 07:33:31;;;;;;;34.15;24.52;;;;;;;;;;5104822;28;20049;-64
2022/08/16 07:35:58;;;;;;;29.85;22.95;;;;;;;;;;5102357;28;20042;-64
2022/08/16 07:38:26;;;;;;;30.48;22.52;;;;;;;;;;5105445;28;20044;-65
2022/08/16 07:40:53;;;;;;;27.45;22.23;;;;;;;;;;5103538;28;20063;-64
2022/08/16 07:43:22;;;;;;;31.77;23.13;;;;;;;;;;5063915;28;1123173;-64
2022/08/16 07:45:49;;;;;;;36.25;24.48;;;;;;;;;;5102737;28;20545;-64
2022/08/16 07:48:17;;;;;;;41.35;25.02;;;;;;;;;;5106760;28;20052;-64
2022/08/16 07:50:44;;;;;;;34.85;24.90;;;;;;;;;;5100109;28;20050;-64
2022/08/16 07:53:12;;;;;;;33.22;25.20;;;;;;;;;;5102235;28;20055;-65
2022/08/16 07:55:40;;;;;;;31.20;25.42;;;;;;;;;;5102553;28;20428;-64
2022/08/16 07:58:07;;;;;;;34.85;24.70;;;;;;;;;;5087559;28;20568;-65
2022/08/16 08:00:36;;;;;;;32.28;22.17;;;;;;;;;;5106501;28;20055;-65
2022/08/16 08:03:04;;;;;;;32.50;22.58;;;;;;;;;;5100969;28;20055;-64
2022/08/16 08:05:31;;;;;;;35.00;21.83;;;;;;;;;;5102554;28;20044;-64
2022/08/16 08:07:58;;;;;;;29.10;22.45;;;;;;;;;;5106344;28;20414;-64
2022/08/16 08:10:26;;;;;;;35.13;23.33;;;;;;;;;;5105994;28;20051;-64
2022/08/16 08:12:56;;;;;;;34.20;22.60;;;;;;;;;;5101404;28;20044;-64
2022/08/16 08:15:23;;;;;;;35.47;23.95;;;;;;;;;;5104236;28;20055;-65
2022/08/16 08:17:53;;;;;;;32.95;24.90;;;;;;;;;;5085652;28;20096;-64
2022/08/16 08:20:21;;;;;;;31.98;24.00;;;;;;;;;;5103082;28;20096;-64
2022/08/16 08:22:50;;;;;;;31.60;26.15;;;;;;;;;;5104773;28;20048;-65
2022/08/16 08:25:19;;;;;;;32.40;25.80;;;;;;;;;;5103928;28;20054;-65
2022/08/16 08:27:46;;;;;;;36.25;25.17;;;;;;;;;;5105937;28;20528;-64
2022/08/16 08:30:13;;;;;;;34.92;25.13;;;;;;;;;;5099416;28;20047;-65
2022/08/16 08:32:41;;;;;;;30.85;25.20;;;;;;;;;;5099756;28;20045;-65
2022/08/16 08:35:11;;;;;;;33.80;24.73;;;;;;;;;;5103981;28;20048;-64
2022/08/16 08:37:38;;;;;;;37.70;25.60;;;;;;;;;;5101366;28;20047;-65
2022/08/16 08:40:06;;;;;;;34.67;26.58;;;;;;;;;;5103283;28;20052;-64
2022/08/16 08:42:33;;;;;;;34.47;25.98;;;;;;;;;;5100837;28;20051;-64
2022/08/16 08:45:02;;;;;;;33.38;25.58;;;;;;;;;;5100608;28;20052;-64
2022/08/16 08:47:29;;;;;;;32.33;25.92;;;;;;;;;;5098112;28;20082;-65
2022/08/16 08:49:57;;;;;;;38.42;25.35;;;;;;;;;;5104517;28;20044;-65
2022/08/16 08:52:26;;;;;;;30.83;23.83;;;;;;;;;;5100289;28;20085;-65
2022/08/16 08:54:54;;;;;;;30.83;22.70;;;;;;;;;;5097592;28;20044;-65
2022/08/16 08:57:21;;;;;;;33.97;25.05;;;;;;;;;;5100945;28;20478;-64
2022/08/16 08:59:48;;;;;;;69.35;25.27;;;;;;;;;;5097923;28;20039;-64
2022/08/16 09:02:17;;;;;;;29.45;22.20;;;;;;;;;;5105358;28;20059;-64
2022/08/16 09:04:44;;;;;;;30.85;22.27;;;;;;;;;;5101215;28;20049;-65
2022/08/16 09:07:12;;;;;;;33.03;23.05;;;;;;;;;;5102473;28;20046;-65
2022/08/16 09:09:41;;;;;;;32.25;22.58;;;;;;;;;;5101024;27;20130;-64
2022/08/16 09:12:08;;;;;;;33.65;22.65;;;;;;;;;;5102447;28;20415;-65
2022/08/16 09:14:37;;;;;;;34.65;23.90;;;;;;;;;;5098596;28;20332;-64
2022/08/16 09:17:05;;;;;;;28.40;20.88;;;;;;;;;;5104427;28;20051;-65
2022/08/16 09:19:32;;;;;;;27.75;21.27;;;;;;;;;;5103650;28;20498;-65
2022/08/16 09:22:00;;;;;;;26.95;22.60;;;;;;;;;;5102540;28;20051;-65
2022/08/16 09:24:27;;;;;;;29.13;21.75;;;;;;;;;;5085047;28;20058;-64
2022/08/16 09:26:55;;;;;;;31.10;22.30;;;;;;;;;;5105711;28;20410;-65
2022/08/16 09:29:23;;;;;;;29.52;21.80;;;;;;;;;;5079400;28;20051;-64
2022/08/16 09:31:50;;;;;;;27.52;20.05;;;;;;;;;;5092889;28;20879;-65
2022/08/16 09:34:17;;;;;;;27.63;18.90;;;;;;;;;;5078520;28;20406;-65
2022/08/16 09:36:44;;;;;;;33.17;22.33;;;;;;;;;;5093373;28;20052;-65
2022/08/16 09:39:11;;;;;;;28.73;20.88;;;;;;;;;;5098163;28;20052;-65
2022/08/16 09:41:39;;;;;;;28.63;20.65;;;;;;;;;;5098000;28;20055;-64
2022/08/16 09:44:07;;;;;;;27.55;19.90;;;;;;;;;;5100714;28;20522;-65
2022/08/16 09:46:35;;;;;;;27.13;20.85;;;;;;;;;;5098444;28;20054;-64
2022/08/16 09:49:02;;;;;;;27.17;19.75;;;;;;;;;;5095044;28;20655;-64
2022/08/16 09:51:29;;;;;;;27.33;19.50;;;;;;;;;;5098447;28;20052;-65
2022/08/16 09:53:56;;;;;;;25.88;16.92;;;;;;;;;;5095536;28;20039;-65
2022/08/16 09:56:26;;;;;;;22.13;16.38;;;;;;;;;;5098915;28;20051;-65
2022/08/16 09:58:53;;;;;;;25.70;17.88;;;;;;;;;;5098293;28;20048;-65
2022/08/16 10:01:23;;;;;;;26.48;15.55;;;;;;;;;;5093745;28;20051;-65
2022/08/16 10:03:50;;;;;;;22.15;15.93;;;;;;;;;;5095024;28;20052;-65
2022/08/16 10:06:18;;;;;;;26.30;16.98;;;;;;;;;;5096690;28;20063;-65
2022/08/16 10:08:45;;;;;;;24.35;14.70;;;;;;;;;;5105328;28;20379;-65
2022/08/16 10:13:57;;;;;;;18.92;13.50;;;;;;;;;;5101902;28;20054;-65
2022/08/16 10:16:26;;;;;;;21.38;14.32;;;;;;;;;;5105202;28;20063;-65
2022/08/16 10:18:53;;;;;;;22.02;14.60;;;;;;;;;;5106226;28;20048;-65
2022/08/16 10:21:22;;;;;;;20.70;14.48;;;;;;;;;;5106238;28;20043;-65
2022/08/16 10:23:50;;;;;;;22.95;13.40;;;;;;;;;;5083068;28;20063;-65
2022/08/16 10:26:18;;;;;;;21.65;13.48;;;;;;;;;;5107218;28;20074;-65
2022/08/16 10:28:45;;;;;;;16.95;12.05;;;;;;;;;;5095166;28;20051;-65
2022/08/16 10:31:13;;;;;;;20.25;12.32;;;;;;;;;;5097179;28;20105;-65
2022/08/16 10:33:41;;;;;;;16.83;10.27;;;;;;;;;;5101279;28;20123;-65
2022/08/16 10:36:11;;;;;;;17.85;11.40;;;;;;;;;;5101927;28;20896;-64
2022/08/16 10:38:39;;;;;;;15.00;10.07;;;;;;;;;;5104382;28;20452;-64
2022/08/16 10:41:07;;;;;;;15.55;8.88;;;;;;;;;;5102196;28;20047;-65
2022/08/16 10:43:34;;;;;;;15.07;8.50;;;;;;;;;;5101848;28;20060;-65
2022/08/16 10:46:02;;;;;;;13.75;8.30;;;;;;;;;;5098274;28;20044;-65
2022/08/16 10:48:30;;;;;;;18.33;9.85;;;;;;;;;;5104615;28;20130;-65
2022/08/16 10:50:58;;;;;;;16.55;9.18;;;;;;;;;;5100633;28;20418;-65
2022/08/16 10:53:26;;;;;;;16.52;10.55;;;;;;;;;;5094059;28;20047;-65
2022/08/16 10:55:53;;;;;;;13.13;9.70;;;;;;;;;;5099827;28;20051;-65
2022/08/16 10:58:21;;;;;;;16.00;10.38;;;;;;;;;;5103813;28;20048;-65
2022/08/16 11:00:48;;;;;;;15.00;9.57;;;;;;;;;;5099249;28;20048;-65
2022/08/16 11:03:15;;;;;;;14.95;9.07;;;;;;;;;;5102295;28;20048;-65
2022/08/16 11:05:43;;;;;;;16.42;8.32;;;;;;;;;;5101642;28;20058;-65
2022/08/16 11:08:12;;;;;;;12.75;8.35;;;;;;;;;;5105178;28;20054;-65
2022/08/16 11:10:40;;;;;;;16.35;8.07;;;;;;;;;;5104222;28;20048;-65
2022/08/16 11:13:08;;;;;;;15.23;8.57;;;;;;;;;;5107025;28;20058;-66
2022/08/16 11:15:36;;;;;;;13.75;8.25;;;;;;;;;;5105672;28;20055;-65
2022/08/16 11:18:07;;;;;;;14.07;8.57;;;;;;;;;;5107312;28;20051;-65
2022/08/16 11:20:34;;;;;;;13.88;8.90;;;;;;;;;;5101691;28;20597;-65
2022/08/16 11:23:01;;;;;;;11.70;8.38;;;;;;;;;;5106291;28;20059;-65
2022/08/16 11:25:31;;;;;;;10.38;7.93;;;;;;;;;;5107478;28;20047;-65
2022/08/16 11:27:59;;;;;;;12.77;7.18;;;;;;;;;;5103474;28;20402;-66
2022/08/16 11:30:28;;;;;;;11.35;8.07;;;;;;;;;;5103692;28;20055;-65
2022/08/16 11:32:55;;;;;;;11.25;7.97;;;;;;;;;;5104426;28;20728;-65
2022/08/16 11:35:24;;;;;;;14.57;8.95;;;;;;;;;;5104235;28;20055;-65
2022/08/16 11:37:53;;;;;;;9.77;6.38;;;;;;;;;;5089084;28;21308;-65
2022/08/16 11:40:21;;;;;;;11.45;6.95;;;;;;;;;;5098659;28;20052;-65
2022/08/16 11:42:49;;;;;;;13.48;6.40;;;;;;;;;;5107906;28;20721;-65
2022/08/16 11:45:16;;;;;;;11.98;6.63;;;;;;;;;;5104418;28;20043;-65
2022/08/16 11:47:44;;;;;;;9.57;5.90;;;;;;;;;;5106563;28;20043;-66
2022/08/16 11:50:11;;;;;;;11.02;5.82;;;;;;;;;;5104549;28;20187;-65
2022/08/16 11:52:39;;;;;;;11.68;7.10;;;;;;;;;;5103154;28;20066;-65
2022/08/16 11:55:08;;;;;;;9.88;5.38;;;;;;;;;;5102239;28;20047;-65
2022/08/16 11:57:35;;;;;;;7.15;5.35;;;;;;;;;;5106772;28;20100;-65
2022/08/16 12:00:06;;;;;;;11.77;5.65;;;;;;;;;;5104144;28;20058;-66
2022/08/16 12:02:33;;;;;;;7.45;5.80;;;;;;;;;;5098477;28;20044;-65
2022/08/16 12:05:00;;;;;;;10.57;5.47;;;;;;;;;;5104132;28;20054;-65
2022/08/16 12:07:27;;;;;;;11.20;7.20;;;;;;;;;;5104828;28;20044;-66
2022/08/16 12:09:54;;;;;;;11.40;7.55;;;;;;;;;;5105721;27;20043;-66
2022/08/16 12:12:22;;;;;;;18.33;9.02;;;;;;;;;;5101405;28;20104;-66
2022/08/16 12:14:49;;;;;;;11.02;8.63;;;;;;;;;;5106933;28;20551;-66
2022/08/16 12:17:19;;;;;;;12.18;7.63;;;;;;;;;;5101687;28;20453;-66
2022/08/16 12:19:46;;;;;;;14.63;7.43;;;;;;;;;;5082492;28;20080;-65
2022/08/16 12:22:14;;;;;;;9.52;6.40;;;;;;;;;;5105817;28;20172;-66
2022/08/16 12:24:41;;;;;;;13.13;6.65;;;;;;;;;;5099151;28;20047;-65
2022/08/16 12:27:09;;;;;;;8.95;6.82;;;;;;;;;;5103069;28;20047;-66
2022/08/16 12:29:36;;;;;;;11.07;6.50;;;;;;;;;;5093476;28;20485;-65
2022/08/16 12:32:03;;;;;;;7.82;6.65;;;;;;;;;;5096736;28;20056;-66
2022/08/16 12:34:32;;;;;;;9.48;7.43;;;;;;;;;;5102658;28;20052;-66
2022/08/16 12:37:01;;;;;;;12.60;8.43;;;;;;;;;;5099936;28;20039;-66
2022/08/16 12:39:29;;;;;;;11.52;7.00;;;;;;;;;;5104921;28;20443;-66
2022/08/16 12:41:56;;;;;;;12.60;7.25;;;;;;;;;;5085778;28;20564;-65
2022/08/16 12:44:25;;;;;;;10.88;7.53;;;;;;;;;;5099745;28;20060;-65
2022/08/16 12:49:35;;;;;;;13.30;9.18;;;;;;;;;;5099836;28;20051;-66
2022/08/16 12:52:02;;;;;;;11.85;7.40;;;;;;;;;;5104512;28;20047;-66
2022/08/16 12:54:29;;;;;;;9.98;8.55;;;;;;;;;;5101134;28;20060;-65
2022/08/16 12:56:57;;;;;;;12.45;9.57;;;;;;;;;;5103247;28;20051;-65
2022/08/16 12:59:25;;;;;;;13.27;9.85;;;;;;;;;;5103269;28;20686;-66
2022/08/16 13:01:52;;;;;;;13.25;8.30;;;;;;;;;;5100120;28;20112;-66
2022/08/16 13:04:20;;;;;;;10.88;7.75;;;;;;;;;;5103814;28;20058;-66
2022/08/16 13:06:49;;;;;;;11.88;10.68;;;;;;;;;;5104464;28;20055;-65
2022/08/16 13:09:23;;;;;;;11.23;8.88;;;;;;;;;;5103866;28;20078;-65
2022/08/16 13:11:59;;;;;;;12.07;8.05;;;;;;;;;;5100668;28;20098;-65
2022/08/16 13:14:27;;;;;;;20.88;9.27;;;;;;;;;;5094079;28;20047;-65
2022/08/16 13:16:54;;;;;;;11.75;9.82;;;;;;;;;;5086835;28;20058;-66
2022/08/16 13:19:21;;;;;;;15.45;11.18;;;;;;;;;;5096975;28;21391;-65
2022/08/16 13:21:50;;;;;;;13.20;10.50;;;;;;;;;;5104856;28;20040;-65
2022/08/16 13:24:17;;;;;;;13.70;12.23;;;;;;;;;;5099984;28;20394;-65
2022/08/16 13:26:44;;;;;;;14.38;10.48;;;;;;;;;;5082776;28;20047;-66
2022/08/16 13:29:12;;;;;;;11.02;9.82;;;;;;;;;;5101676;28;20044;-65
2022/08/16 13:31:39;;;;;;;11.82;9.63;;;;;;;;;;5094252;28;20071;-66
2022/08/16 13:34:06;;;;;;;12.85;8.63;;;;;;;;;;5098547;28;20184;-65
2022/08/16 13:36:33;;;;;;;11.80;8.38;;;;;;;;;;5079827;28;20056;-66
2022/08/16 13:39:02;;;;;;;11.63;7.97;;;;;;;;;;5103040;28;20088;-65
2022/08/16 13:41:30;;;;;;;9.70;8.50;;;;;;;;;;5099760;28;20135;-66
2022/08/16 13:43:58;;;;;;;10.27;8.75;;;;;;;;;;5106088;28;20059;-66
2022/08/16 13:46:25;;;;;;;9.30;7.40;;;;;;;;;;5107600;28;20050;-66
2022/08/16 13:48:52;;;;;;;9.57;7.80;;;;;;;;;;5104768;28;20505;-66
2022/08/16 13:51:22;;;;;;;10.45;7.53;;;;;;;;;;5108554;28;20055;-66
2022/08/16 13:53:51;;;;;;;11.88;6.38;;;;;;;;;;5107929;28;20138;-66
2022/08/16 13:56:19;;;;;;;9.88;6.60;;;;;;;;;;5107019;28;20058;-66
2022/08/16 13:58:47;;;;;;;11.35;6.97;;;;;;;;;;5105522;28;20402;-66
2022/08/16 14:01:14;;;;;;;8.18;7.32;;;;;;;;;;5109585;28;20055;-66
2022/08/16 14:03:42;;;;;;;9.93;8.88;;;;;;;;;;5104223;28;20129;-65
2022/08/16 14:06:10;;;;;;;9.55;8.40;;;;;;;;;;5104058;28;20097;-66
2022/08/16 14:08:37;;;;;;;10.65;9.18;;;;;;;;;;5103799;28;20044;-66
2022/08/16 14:11:05;;;;;;;14.85;11.18;;;;;;;;;;5111172;27;20048;-66
2022/08/16 14:13:34;;;;;;;11.13;9.88;;;;;;;;;;5099852;28;20048;-66
2022/08/16 14:16:01;;;;;;;11.23;9.23;;;;;;;;;;5086424;28;20043;-66
2022/08/16 14:18:28;;;;;;;11.70;8.43;;;;;;;;;;5104064;28;20058;-66
2022/08/16 14:20:57;;;;;;;9.07;8.18;;;;;;;;;;5101343;28;20051;-66
2022/08/16 14:23:24;;;;;;;13.00;6.88;;;;;;;;;;5101875;28;20066;-66
2022/08/16 14:25:52;;;;;;;9.57;7.30;;;;;;;;;;5104226;28;20048;-66
2022/08/16 14:28:19;;;;;;;9.00;7.70;;;;;;;;;;5103657;28;20075;-66